KJYO

Leesburg Executive Airport

Leesburg, Virginia, USA
METAR KJYO 161535Z AUTO 32014KT 10SM CLR 05/00 A2991 RMK AO2 P0012
Observed Flight Rules
Nov-16 @ 15:35 UTC (31 minutes ago) Visual Flight Rules
Wind Visibility Clouds
320° at 14 knots 10 miles
  • Clear skies
Temperatures Readings Precipitation
Current 5°C / 41°F
Dewpoint 0°C / 32°F
Humidity 70%
Altimeter 29.91" Hg
Pressure 1013 hPa
Elevation 119
Current Rain 0.12
METAR KJYO 161535Z AUTO 32014KT 10SM CLR 05/00 A2991 RMK AO2 P0012
Observed Flight Rules
Nov-16 @ 15:35 UTC
(31 minutes ago)
VFR
Wind Visibility
320° at 14 knots 10 miles
Clouds
  • Clear skies
Temperature Dewpoint
5°C / 41°F 0°C / 32°F
Humidity Altimeter Pressure
70% 29.91" Hg 1013 hPa
Current Rain
0.12